Aérodrome :
LOGIN :

S'inscrire | Disclaimer

   EN    FR    IT 

 










Légende :    VFR   VFR Marginal   IFR   IFR Intensif   IFR Très Intensif
Visi : 
Plafond : 
>= 8 km
>= 3000ft
5 à 8 km
1000 à 3000 ft
1500m à 5 km
500 à 1000 ft
800 à 1500m
200 à 500 ft
< 800m
< 200 ft
Symboles :   Orages  Brouillard  Fortes neiges  Fortes précipitations  Vent > 20 kt
SIGMETs :   Divers  Orages  Givrage  Turbulence  Onde Orograph.  Cendres Volcan.






- Altitude de l'aérodrome : 147 ft
- Code IATA : DUS


EDDL - Düsseldorf Int.

DERNIER METAR :
  • 231420Z VRB02KT 9000 FEW011 BKN028 06/04 Q1035 NOSIG

METARs EXPIRÉS :
  • 231350Z VRB02KT 8000 FEW009 BKN028 06/04 Q1035 NOSIG
  • 231320Z VRB02KT 7000 SCT008 OVC026 06/04 Q1035 NOSIG
  • 231250Z VRB02KT 7000 SCT007 OVC026 06/04 Q1036 NOSIG
  • 231220Z VRB02KT 6000 FEW007 OVC023 06/04 Q1036 NOSIG
  • 231150Z 28002KT 6000 FEW006 SCT015 OVC025 06/04 Q1036 NOSIG

TAF COR TAF EDDL
Valide du 23 à 12h jusqu'au 24 à 18h UTC


231146Z 2312/2418 VRB03KT 7000 BKN025
TEMPO 2400/2410 4000 BR
PROB30
TEMPO 2400/2408 0800 FG OVC001
TEMPO 2410/2415 16005KT



MET'MAP, la Météo Aéronautique d'un coup d'oeil ! - Copyright ORBIFLY Décembre 2007 - Disclaimer

ORBIFLY MET'MAP TEAM :

Programmation & Développement : Alexandra Zaïnal
Sur une idée originale de : Baudouin d'Aumeries
Assistance à la programmation : Marc-Olivier Méhu
Soutien technique & logistique : Manuel Goepfert

Contact : metmap@orbifly.com




SOURCES & CREDITS :

   NOAA